Time;durP1;ratioP1;P1;durP2;ratioP2;P2;SDS_P1;SDS_P2;PMS_P1;PMS_P2;Temp;Humidity;BMP_temperature;BMP_pressure;BME280_temperature;BME280_humidity;BME280_pressure;Samples;Min_cycle;Max_cycle;Signal;HPM_P1;HPM_P2
2022/01/17 00:00:33;;;;;;;23.07;12.47;;;;;;;-1.82;100.00;60624.44;5072499;28;20549;-75
2022/01/17 00:03:01;;;;;;;27.03;11.70;;;;;;;-1.98;100.00;60597.53;5071482;28;20462;-77
2022/01/17 00:05:29;;;;;;;32.33;14.40;;;;;;;-1.89;100.00;60607.56;5071825;28;20865;-76
2022/01/17 00:07:57;;;;;;;25.33;11.88;;;;;;;-2.87;100.00;60509.53;5071774;28;20973;-74
2022/01/17 00:10:23;;;;;;;25.83;13.00;;;;;;;-3.16;100.00;60478.41;5071744;28;20283;-74
2022/01/17 00:12:52;;;;;;;26.95;13.73;;;;;;;-2.17;100.00;60579.97;5071822;28;20496;-76
2022/01/17 00:15:25;;;;;;;34.83;15.57;;;;;;;-2.29;100.00;60565.31;5071603;28;20212;-75
2022/01/17 00:18:09;;;;;;;31.20;15.57;;;;;;;-2.27;100.00;60571.88;5071677;28;20500;-74
2022/01/17 00:20:36;;;;;;;29.80;14.17;;;;;;;-3.92;100.00;60398.75;5071420;28;20592;-74
2022/01/17 00:23:06;;;;;;;35.00;15.77;;;;;;;-2.25;100.00;60574.50;5072306;28;20511;-76
2022/01/17 00:25:34;;;;;;;34.03;15.40;;;;;;;-3.39;100.00;60449.66;5071479;28;20801;-75
2022/01/17 00:28:01;;;;;;;38.00;16.33;;;;;;;-3.95;100.00;60405.50;5071195;28;20457;-75
2022/01/17 00:30:32;;;;;;;58.60;23.73;;;;;;;-2.22;100.00;60577.16;5071376;28;20462;-74
2022/01/17 00:32:59;;;;;;;65.47;28.20;;;;;;;-3.99;100.00;60391.34;5070196;28;20439;-74
2022/01/17 00:35:29;;;;;;;69.90;28.10;;;;;;;-2.54;100.00;60541.38;5072000;28;20262;-76
2022/01/17 00:37:57;;;;;;;53.63;24.50;;;;;;;-2.31;100.00;60562.66;5071607;28;20537;-77
2022/01/17 00:40:25;;;;;;;49.37;23.17;;;;;;;-2.57;100.00;60540.69;5071289;28;20485;-75
2022/01/17 00:42:54;;;;;;;53.27;22.47;;;;;;;-2.24;100.00;60572.56;5071552;28;20496;-75
2022/01/17 00:45:27;;;;;;;38.93;18.83;;;;;;;-3.62;100.00;60422.91;5071640;28;20450;-75
2022/01/17 00:48:00;;;;;;;33.80;15.33;;;;;;;-2.13;100.00;60581.69;5072910;28;20442;-75
2022/01/17 00:50:37;;;;;;;41.20;16.97;;;;;;;-2.24;100.00;60578.06;5075202;28;20819;-76
2022/01/17 00:53:05;;;;;;;47.40;21.80;;;;;;;-2.62;100.00;60535.97;5075024;28;20975;-75
2022/01/17 00:55:33;;;;;;;45.20;21.30;;;;;;;-2.43;100.00;60554.97;5075073;28;20450;-75
2022/01/17 00:58:03;;;;;;;48.17;23.63;;;;;;;-4.31;100.00;60363.63;5074913;28;20446;-73
2022/01/17 01:00:35;;;;;;;50.37;24.07;;;;;;;-2.95;100.00;60496.13;5074639;28;20487;-74
2022/01/17 01:03:04;;;;;;;50.65;23.38;;;;;;;-2.70;100.00;60525.03;5074932;28;20949;-73
2022/01/17 01:05:32;;;;;;;46.30;21.03;;;;;;;-3.80;100.00;60406.41;5074543;28;20567;-76
2022/01/17 01:08:01;;;;;;;44.90;18.03;;;;;;;-3.13;100.00;60482.09;5074895;28;20454;-74
2022/01/17 01:10:32;;;;;;;34.67;17.53;;;;;;;-3.32;100.00;60456.53;5074815;28;20534;-76
2022/01/17 01:12:59;;;;;;;37.93;16.93;;;;;;;-3.96;100.00;60392.53;5074553;28;20496;-76
2022/01/17 01:15:58;;;;;;;40.30;17.40;;;;;;;-3.92;100.00;60398.75;5074654;28;20961;-75
2022/01/17 01:18:49;;;;;;;30.73;14.17;;;;;;;-3.40;100.00;60453.06;5074644;28;20457;-73
2022/01/17 01:29:54;;;;;;;27.58;13.07;;;;;;;-3.99;100.00;60386.38;5074100;28;20536;-75
2022/01/17 01:32:26;;;;;;;25.13;11.87;;;;;;;-2.64;100.00;60528.88;5074897;28;20540;-76
2022/01/17 01:35:01;;;;;;;26.30;12.00;;;;;;;-3.69;100.00;60415.53;5074129;28;20461;-76
2022/01/17 01:37:32;;;;;;;27.70;12.80;;;;;;;-2.42;100.00;60556.03;5074348;28;20511;-75
2022/01/17 01:40:05;;;;;;;27.52;13.23;;;;;;;-3.36;100.00;60452.84;5073771;28;20431;-75
2022/01/17 01:42:58;;;;;;;24.53;11.67;;;;;;;-2.49;100.00;60543.66;5073790;28;20200;-75
2022/01/17 01:45:31;;;;;;;26.03;11.30;;;;;;;-2.67;100.00;60527.66;5073821;28;20442;-75
2022/01/17 01:47:59;;;;;;;23.40;11.73;;;;;;;-2.29;100.00;60569.78;5073586;28;20430;-75
2022/01/17 01:50:40;;;;;;;23.38;10.73;;;;;;;-2.28;100.00;60570.81;5073120;28;20536;-77
2022/01/17 01:53:08;;;;;;;19.77;9.43;;;;;;;-2.37;100.00;60558.81;5072382;28;20204;-74
2022/01/17 01:55:40;;;;;;;22.13;10.37;;;;;;;-2.35;100.00;60563.44;5073239;28;20228;-75
2022/01/17 01:58:11;;;;;;;23.53;10.17;;;;;;;-3.82;100.00;60404.31;5073380;28;20576;-77
2022/01/17 02:00:38;;;;;;;23.23;10.40;;;;;;;-2.67;100.00;60530.66;5073686;28;20911;-75
2022/01/17 02:03:10;;;;;;;20.50;9.93;;;;;;;-2.26;100.00;60567.94;5073139;28;20531;-76
2022/01/17 02:05:40;;;;;;;17.67;9.30;;;;;;;-2.23;100.00;60571.63;5073873;28;20434;-74
2022/01/17 02:08:15;;;;;;;20.60;10.23;;;;;;;-2.15;100.00;60585.09;5073595;28;20937;-75
2022/01/17 02:10:44;;;;;;;20.67;9.80;;;;;;;-2.18;100.00;60579.44;5073341;28;20503;-75
2022/01/17 02:13:17;;;;;;;21.07;10.13;;;;;;;-2.15;100.00;60582.06;5073665;28;20435;-73
2022/01/17 02:15:47;;;;;;;21.87;11.00;;;;;;;-2.20;100.00;60574.28;5074804;28;20446;-75
2022/01/17 02:18:28;;;;;;;21.17;11.40;;;;;;;-2.18;100.00;60576.41;5073285;28;20431;-75
2022/01/17 02:23:44;;;;;;;25.10;10.90;;;;;;;-2.11;100.00;60586.31;5069761;28;20431;-76
2022/01/17 02:26:12;;;;;;;22.70;10.30;;;;;;;-3.24;100.00;60465.50;5072979;28;20941;-73
2022/01/17 02:28:39;;;;;;;24.13;11.17;;;;;;;-3.03;100.00;60487.13;5071957;28;20448;-75
2022/01/17 02:31:08;;;;;;;23.27;11.10;;;;;;;-2.29;100.00;60562.28;5073150;28;20547;-75
2022/01/17 02:33:36;;;;;;;22.57;11.33;;;;;;;-2.44;100.00;60556.41;5072962;28;20443;-76
2022/01/17 02:36:07;;;;;;;24.40;11.83;;;;;;;-2.41;100.00;60552.63;5073037;28;20423;-75
2022/01/17 02:38:39;;;;;;;28.00;12.93;;;;;;;-2.44;100.00;60554.44;5072682;28;20438;-75
2022/01/17 02:41:14;;;;;;;37.03;16.70;;;;;;;-2.70;100.00;60524.50;5072860;28;20513;-75
2022/01/17 02:43:46;;;;;;;38.63;17.47;;;;;;;-3.81;100.00;60405.34;5072769;28;20438;-76
2022/01/17 02:46:30;;;;;;;36.87;17.23;;;;;;;-2.61;100.00;60537.00;5073002;28;20588;-74
2022/01/17 02:49:00;;;;;;;37.07;17.07;;;;;;;-4.30;100.00;60356.69;5073373;28;20427;-75
2022/01/17 02:51:30;;;;;;;32.80;16.63;;;;;;;-2.66;100.00;60528.72;5072659;28;20545;-74
2022/01/17 02:53:58;;;;;;;40.30;18.40;;;;;;;-2.83;100.00;60513.78;5072486;28;20443;-73
2022/01/17 02:56:25;;;;;;;40.63;18.10;;;;;;;-3.04;100.00;60488.59;5072647;28;20441;-74
2022/01/17 02:58:53;;;;;;;46.47;21.20;;;;;;;-3.72;100.00;60414.84;5071280;28;20537;-75
2022/01/17 03:01:24;;;;;;;50.45;21.92;;;;;;;-2.79;100.00;60515.50;5072396;28;20474;-75
2022/01/17 03:03:52;;;;;;;52.22;22.13;;;;;;;-2.65;100.00;60527.25;5072643;28;20664;-75
2022/01/17 03:06:19;;;;;;;45.28;20.88;;;;;;;-4.50;100.00;60333.13;5071951;28;20278;-74
2022/01/17 03:08:51;;;;;;;48.90;21.10;;;;;;;-4.30;100.00;60354.72;5072345;28;20329;-73
2022/01/17 03:11:26;;;;;;;43.20;19.97;;;;;;;-2.99;100.00;60493.84;5071914;28;20446;-76
2022/01/17 03:14:04;;;;;;;44.30;18.97;;;;;;;-4.50;100.00;60333.66;5073066;28;20442;-75
2022/01/17 03:16:45;;;;;;;44.87;20.27;;;;;;;-3.25;100.00;60469.44;5072318;28;20853;-74
2022/01/17 03:19:14;;;;;;;50.05;22.77;;;;;;;-3.34;100.00;60457.44;5072277;28;20441;-77
2022/01/17 03:21:41;;;;;;;55.23;21.50;;;;;;;-4.93;100.00;60290.84;5072151;28;20232;-76
2022/01/17 03:24:19;;;;;;;49.43;22.80;;;;;;;-4.67;100.00;60312.72;5072015;28;20434;-77
2022/01/17 03:26:48;;;;;;;51.63;23.50;;;;;;;-3.44;100.00;60444.41;5072561;28;20445;-76
2022/01/17 03:32:04;;;;;;;70.30;30.63;;;;;;;-3.48;100.00;60445.16;5095648;28;20288;-74
2022/01/17 03:40:03;;;;;;;70.93;28.73;;;;;;;-4.70;100.00;60317.53;5072191;28;20283;-75
2022/01/17 03:42:30;;;;;;;68.47;30.80;;;;;;;-4.66;100.00;60316.25;5071799;28;20492;-75
2022/01/17 03:47:43;;;;;;;57.58;28.25;;;;;;;-3.34;100.00;60454.41;5071584;28;20500;-74
2022/01/17 03:50:17;;;;;;;64.60;27.70;;;;;;;-3.47;100.00;60441.22;5071776;28;20212;-75
2022/01/17 03:52:46;;;;;;;56.92;28.13;;;;;;;-4.59;100.00;60318.69;5071733;28;20557;-78
2022/01/17 03:55:34;;;;;;;64.60;29.02;;;;;;;-3.58;100.00;60432.63;5071911;28;20224;-73
2022/01/17 03:58:04;;;;;;;68.88;28.52;;;;;;;-3.67;100.00;60423.16;5072009;28;20638;-76
2022/01/17 04:00:43;;;;;;;63.20;27.75;;;;;;;-3.59;100.00;60428.56;5070954;28;20200;-75
2022/01/17 04:03:13;;;;;;;63.20;27.45;;;;;;;-3.52;100.00;60438.97;5071653;28;20239;-77
2022/01/17 04:05:43;;;;;;;84.22;34.10;;;;;;;-4.48;100.00;60335.75;5071985;28;20226;-76
2022/01/17 04:08:12;;;;;;;72.93;32.38;;;;;;;-3.58;100.00;60429.63;5071663;28;20200;-72
2022/01/17 04:10:55;;;;;;;67.50;29.60;;;;;;;-3.74;100.00;60413.25;5070629;28;20201;-75
2022/01/17 04:13:26;;;;;;;67.10;27.98;;;;;;;-3.97;100.00;60388.47;5071011;28;20200;-75
2022/01/17 04:15:55;;;;;;;74.00;28.60;;;;;;;-3.77;100.00;60414.56;5070705;28;20239;-74
2022/01/17 04:21:07;;;;;;;59.67;27.43;;;;;;;-3.62;100.00;60425.41;5071526;28;20572;-74
2022/01/17 04:23:35;;;;;;;70.15;29.52;;;;;;;-3.62;100.00;60427.91;5075513;28;20508;-74
2022/01/17 04:26:05;;;;;;;75.50;31.30;;;;;;;-3.55;100.00;60432.78;5075204;28;20660;-75
2022/01/17 04:28:36;;;;;;;60.70;28.83;;;;;;;-3.55;100.00;60437.75;5075385;28;20450;-74
2022/01/17 04:31:05;;;;;;;78.55;32.25;;;;;;;-4.18;100.00;60366.84;5074636;28;20208;-76
2022/01/17 04:33:36;;;;;;;88.43;38.03;;;;;;;-4.07;100.00;60380.41;5075071;28;20722;-76
2022/01/17 04:36:10;;;;;;;90.65;35.58;;;;;;;-3.44;100.00;60444.41;5075126;28;20614;-76
2022/01/17 04:38:40;;;;;;;77.00;32.65;;;;;;;-5.41;100.00;60240.28;5075092;28;20236;-75
2022/01/17 04:41:16;;;;;;;56.00;25.43;;;;;;;-3.36;100.00;60455.34;5073803;28;20675;-75
2022/01/17 04:46:29;;;;;;;49.93;23.40;;;;;;;-3.59;100.00;60428.56;5075023;28;20199;-77
2022/01/17 04:49:04;;;;;;;46.30;20.53;;;;;;;-3.33;100.00;60458.50;5075153;28;21018;-75
2022/01/17 04:51:32;;;;;;;46.10;22.20;;;;;;;-3.23;100.00;60466.03;5073855;28;20984;-76
2022/01/17 04:54:20;;;;;;;69.35;32.38;;;;;;;-3.14;100.00;60480.50;5074750;28;20791;-76
2022/01/17 04:56:53;;;;;;;44.33;21.25;;;;;;;-4.53;100.00;60335.47;5075375;28;20208;-75
2022/01/17 04:59:23;;;;;;;42.30;19.27;;;;;;;-3.02;100.00;60488.19;5073234;28;20242;-76
2022/01/17 05:01:50;;;;;;;38.78;17.30;;;;;;;-3.21;100.00;60468.66;5074753;28;20318;-75
2022/01/17 05:04:17;;;;;;;39.17;17.55;;;;;;;-3.06;100.00;60487.00;5074579;28;20200;-76
2022/01/17 05:06:45;;;;;;;36.38;16.85;;;;;;;-3.00;100.00;60490.84;5074499;28;20663;-76
2022/01/17 05:09:14;;;;;;;33.80;17.53;;;;;;;-2.97;100.00;60495.97;5074589;28;20258;-75
2022/01/17 05:11:44;;;;;;;30.60;14.45;;;;;;;-2.80;100.00;60514.47;5074231;28;20956;-74
2022/01/17 05:14:15;;;;;;;40.47;18.73;;;;;;;-2.73;100.00;60519.34;5074721;28;20203;-75
2022/01/17 05:16:49;;;;;;;36.72;16.83;;;;;;;-2.90;100.00;60496.44;5075580;28;20445;-75
2022/01/17 05:22:10;;;;;;;31.93;15.00;;;;;;;-3.42;100.00;60446.50;5074890;28;20559;-74
2022/01/17 05:24:38;;;;;;;35.40;16.33;;;;;;;-2.79;100.00;60513.00;5074106;28;20438;-76
2022/01/17 05:27:05;;;;;;;35.10;15.88;;;;;;;-2.72;100.00;60515.44;5072604;28;20575;-74
2022/01/17 05:29:38;;;;;;;24.27;11.98;;;;;;;-2.57;100.00;60536.25;5074243;28;20196;-75
2022/01/17 05:32:06;;;;;;;33.47;15.83;;;;;;;-2.61;100.00;60534.53;5074164;28;20254;-75
2022/01/17 05:34:34;;;;;;;31.27;15.30;;;;;;;-2.75;100.00;60522.22;5073124;28;20443;-75
2022/01/17 05:37:02;;;;;;;37.88;17.42;;;;;;;-2.65;100.00;60527.81;5074678;28;20466;-75
2022/01/17 05:39:33;;;;;;;30.97;15.37;;;;;;;-3.78;100.00;60418.47;5074390;28;20679;-75
2022/01/17 05:42:03;;;;;;;32.25;14.50;;;;;;;-2.63;100.00;60529.91;5080075;28;20500;-76
2022/01/17 05:44:30;;;;;;;26.70;11.98;;;;;;;-2.61;100.00;60534.53;5078810;28;20204;-76
2022/01/17 05:47:00;;;;;;;39.97;12.87;;;;;;;-2.47;100.00;60545.78;5074038;28;20223;-76
2022/01/17 05:49:28;;;;;;;30.73;11.10;;;;;;;-2.58;100.00;60535.19;5074357;28;20449;-75
2022/01/17 05:51:56;;;;;;;23.60;11.90;;;;;;;-2.82;100.00;60509.84;5072687;28;20451;-77
2022/01/17 05:54:24;;;;;;;25.17;11.38;;;;;;;-2.66;100.00;60526.75;5073834;28;20493;-77
2022/01/17 05:56:53;;;;;;;26.77;11.87;;;;;;;-2.50;100.00;60542.59;5073650;28;20200;-75
2022/01/17 05:59:21;;;;;;;31.40;12.43;;;;;;;-4.33;100.00;60359.03;5073528;28;20447;-75
2022/01/17 06:01:49;;;;;;;28.93;14.23;;;;;;;-3.37;100.00;60446.28;5073249;28;20476;-75
2022/01/17 06:04:23;;;;;;;27.87;13.33;;;;;;;-2.40;100.00;60558.13;5071904;28;20464;-75
2022/01/17 06:06:51;;;;;;;27.20;13.37;;;;;;;-2.89;100.00;60506.91;5072990;28;20447;-75
2022/01/17 06:09:21;;;;;;;24.85;12.00;;;;;;;-2.35;100.00;60563.44;5073031;28;20451;-76
2022/01/17 06:11:50;;;;;;;33.57;14.70;;;;;;;-2.63;100.00;60534.91;5073495;28;20261;-74
2022/01/17 06:14:18;;;;;;;32.37;15.10;;;;;;;-2.37;100.00;60556.84;5073055;28;20496;-74
2022/01/17 06:16:46;;;;;;;31.05;12.73;;;;;;;-2.17;100.00;60580.47;5073385;28;20478;-74
2022/01/17 06:19:15;;;;;;;29.03;13.00;;;;;;;-1.77;100.00;60624.75;5072903;28;20246;-75
2022/01/17 06:21:47;;;;;;;33.83;15.03;;;;;;;-0.81;100.00;60720.22;5073120;28;20451;-73
2022/01/17 06:24:15;;;;;;;38.37;18.33;;;;;;;-0.42;100.00;60764.53;5073197;28;20496;-75
2022/01/17 06:26:43;;;;;;;41.20;19.40;;;;;;;-0.24;100.00;60780.59;5073110;28;20442;-75
2022/01/17 06:29:12;;;;;;;39.47;20.40;;;;;;;0.66;100.00;60875.97;5072579;28;20445;-75
2022/01/17 06:31:40;;;;;;;33.80;16.20;;;;;;;-0.26;100.00;60783.47;5073008;28;20450;-74
2022/01/17 06:34:07;;;;;;;36.53;17.63;;;;;;;0.85;100.00;60901.09;5072373;28;20478;-73
2022/01/17 06:36:37;;;;;;;121.73;50.13;;;;;;;0.65;100.00;60877.38;5073042;28;20443;-75
2022/01/17 06:39:07;;;;;;;73.40;33.30;;;;;;;-1.27;100.00;60674.59;5073184;28;20516;-77
2022/01/17 06:44:16;;;;;;;69.83;33.67;;;;;;;1.54;100.00;60968.22;5072333;28;20496;-74
2022/01/17 06:46:43;;;;;;;60.70;30.80;;;;;;;0.46;100.00;60857.25;5072559;28;20439;-75
2022/01/17 06:49:12;;;;;;;104.17;43.23;;;;;;;1.89;100.00;61010.41;5079440;28;20442;-76
2022/01/17 06:51:41;;;;;;;134.47;57.87;;;;;;;4.72;100.00;61306.63;5073329;28;20477;-76
2022/01/17 06:54:12;;;;;;;57.03;29.77;;;;;;;6.04;100.00;61446.75;5074064;28;20427;-78
2022/01/17 06:56:43;;;;;;;51.63;28.43;;;;;;;5.78;100.00;61416.50;5073635;28;20430;-74
2022/01/17 07:02:03;;;;;;;25.07;13.87;;;;;;;4.01;100.00;61229.59;5072877;28;20544;-73
2022/01/17 07:04:33;;;;;;;47.83;25.10;;;;;;;5.57;100.00;61397.19;5072235;28;20476;-77
2022/01/17 07:07:00;;;;;;;43.03;22.47;;;;;;;4.01;100.00;61231.59;5072126;28;20492;-76
2022/01/17 07:09:32;;;;;;;47.97;22.47;;;;;;;5.27;100.00;61359.63;5072256;28;20941;-75
2022/01/17 07:12:00;;;;;;;40.63;20.00;;;;;;;5.08;100.00;61344.97;5073046;28;20438;-77
2022/01/17 07:14:31;;;;;;;92.70;43.73;;;;;;;4.79;100.00;61311.56;5072509;28;20451;-76
2022/01/17 07:17:00;;;;;;;134.57;61.77;;;;;;;4.31;100.00;61260.47;5072619;28;20461;-75
2022/01/17 07:19:29;;;;;;;60.07;29.93;;;;;;;5.26;100.00;61361.63;5071983;28;20434;-75
2022/01/17 07:21:58;;;;;;;32.67;17.60;;;;;;;4.51;100.00;61284.28;5071691;28;20439;-77
2022/01/17 07:24:44;;;;;;;37.80;18.20;;;;;;;4.71;100.00;61303.06;5071393;28;20473;-74
2022/01/17 07:27:14;;;;;;;38.67;18.50;;;;;;;4.79;100.00;61311.56;5071444;28;20858;-76
2022/01/17 07:29:42;;;;;;;37.77;20.07;;;;;;;4.23;100.00;61255.53;5070388;28;20427;-76
2022/01/17 07:32:13;;;;;;;42.20;20.40;;;;;;;3.85;100.00;61222.66;5071632;28;20466;-75
2022/01/17 07:34:46;;;;;;;54.53;26.47;;;;;;;4.77;100.00;61314.50;5072425;28;20508;-77
2022/01/17 07:37:13;;;;;;;54.57;26.83;;;;;;;4.64;100.00;61300.63;5072446;28;20495;-79
2022/01/17 07:39:43;;;;;;;52.53;25.07;;;;;;;3.51;100.00;61175.88;5070426;28;20453;-76
2022/01/17 07:42:13;;;;;;;49.30;25.43;;;;;;;4.68;100.00;61297.88;5071309;28;20457;-76
2022/01/17 07:44:43;;;;;;;48.33;23.13;;;;;;;5.23;100.00;61363.50;5071926;28;20442;-76
2022/01/17 07:47:17;;;;;;;39.73;17.93;;;;;;;5.78;100.00;61417.03;5072953;28;20906;-75
2022/01/17 07:49:46;;;;;;;36.70;17.53;;;;;;;5.33;100.00;61369.09;5078828;28;20449;-76
2022/01/17 07:52:16;;;;;;;35.33;16.70;;;;;;;4.48;100.00;61286.13;5072964;28;20438;-75
2022/01/17 07:54:47;;;;;;;29.93;15.13;;;;;;;6.46;100.00;61489.03;5072504;28;20442;-76
2022/01/17 07:57:16;;;;;;;32.53;16.17;;;;;;;5.12;100.00;61351.75;5074344;28;20450;-76
2022/01/17 07:59:45;;;;;;;27.00;13.63;;;;;;;6.21;100.00;61464.38;5076441;28;20434;-73
2022/01/17 08:02:12;;;;;;;25.63;13.73;;;;;;;5.79;100.00;61415.59;5076072;28;20513;-74
2022/01/17 08:04:40;;;;;;;28.07;13.63;;;;;;;5.47;100.00;61389.06;5076233;28;20446;-74
2022/01/17 08:07:07;;;;;;;28.03;14.00;;;;;;;3.93;100.00;61223.06;5075932;28;20508;-76
2022/01/17 08:09:35;;;;;;;21.40;12.67;;;;;;;5.42;100.00;61380.66;5075863;28;20454;-75
2022/01/17 08:12:05;;;;;;;24.97;12.43;;;;;;;5.56;100.00;61398.66;5076166;28;20478;-73
2022/01/17 08:14:34;;;;;;;23.27;11.30;;;;;;;5.38;100.00;61379.47;5075699;28;21005;-76
2022/01/17 08:17:06;;;;;;;24.30;11.77;;;;;;;5.28;100.00;61363.22;5078738;28;20447;-76
2022/01/17 08:19:41;;;;;;;20.50;10.23;;;;;;;4.93;100.00;61327.00;5081326;28;20470;-75
2022/01/17 08:22:09;;;;;;;26.00;10.97;;;;;;;4.77;100.00;61314.50;5078782;28;20430;-74
2022/01/17 08:24:36;;;;;;;28.53;12.17;;;;;;;4.59;100.00;61292.81;5076811;28;20533;-76
2022/01/17 08:27:09;;;;;;;29.57;10.67;;;;;;;4.11;100.00;61252.84;5076527;28;20445;-74
2022/01/17 08:29:47;;;;;;;20.73;10.03;;;;;;;4.77;100.00;61311.97;5076277;28;20450;-76
2022/01/17 08:32:15;;;;;;;15.60;8.43;;;;;;;3.79;100.00;61206.19;5075864;28;20960;-75
2022/01/17 08:34:44;;;;;;;16.13;8.70;;;;;;;4.95;100.00;61331.13;5076676;28;20438;-76
2022/01/17 08:37:11;;;;;;;17.97;9.03;;;;;;;4.87;100.00;61320.63;5078641;28;20438;-75
2022/01/17 08:39:39;;;;;;;21.33;9.00;;;;;;;4.72;100.00;61304.13;5075291;28;20458;-75
2022/01/17 08:42:10;;;;;;;24.30;9.93;;;;;;;4.72;100.00;61306.63;5074956;28;20508;-74
2022/01/17 08:44:40;;;;;;;19.37;10.20;;;;;;;3.79;100.00;61211.25;5075188;28;20504;-75
2022/01/17 08:47:08;;;;;;;16.53;8.03;;;;;;;4.78;100.00;61310.50;5075205;28;20446;-73
2022/01/17 08:49:41;;;;;;;13.20;8.00;;;;;;;4.76;100.00;61313.41;5074725;28;21050;-76
2022/01/17 08:52:20;;;;;;;20.10;7.53;;;;;;;3.67;100.00;61192.91;5075029;28;20886;-77
2022/01/17 08:57:33;;;;;;;21.50;10.83;;;;;;;4.07;100.00;61230.94;5076119;28;20434;-76
2022/01/17 09:00:15;;;;;;;19.53;10.07;;;;;;;4.31;100.00;61265.53;5074946;28;20500;-77
2022/01/17 09:02:45;;;;;;;25.93;10.90;;;;;;;3.90;100.00;61217.91;5074936;28;20856;-78
2022/01/17 09:08:13;;;;;;;22.17;10.57;;;;;;;4.69;100.00;61300.94;5072519;28;20439;-77
2022/01/17 09:10:45;;;;;;;20.83;9.53;;;;;;;4.48;100.00;61278.56;5074495;28;20460;-76
2022/01/17 09:13:14;;;;;;;18.93;9.00;;;;;;;4.59;100.00;61290.78;5074693;28;20512;-75
2022/01/17 09:15:46;;;;;;;18.83;9.63;;;;;;;4.10;100.00;61233.63;5074319;28;20500;-77
2022/01/17 09:18:16;;;;;;;25.53;9.83;;;;;;;4.20;100.00;61249.84;5074497;28;20470;-75
2022/01/17 09:20:44;;;;;;;18.33;10.03;;;;;;;4.26;100.00;61256.22;5075238;28;20434;-77
2022/01/17 09:23:12;;;;;;;20.13;9.30;;;;;;;3.87;100.00;61214.19;5075072;28;20478;-75
2022/01/17 09:25:39;;;;;;;23.97;9.00;;;;;;;4.84;100.00;61316.88;5075081;28;20438;-75
2022/01/17 09:28:12;;;;;;;17.67;8.13;;;;;;;4.85;100.00;61312.91;5074594;28;20941;-75
2022/01/17 09:33:57;;;;;;;18.07;8.37;;;;;;;4.76;100.00;61313.94;5073668;28;20476;-76
2022/01/17 09:36:29;;;;;;;18.40;8.60;;;;;;;4.69;100.00;61301.44;5072924;28;20443;-74
2022/01/17 09:39:00;;;;;;;21.63;7.83;;;;;;;4.58;100.00;61284.16;5074362;28;20489;-76
2022/01/17 09:41:28;;;;;;;11.97;6.87;;;;;;;5.17;100.00;61352.03;5074290;28;20882;-77
2022/01/17 09:43:57;;;;;;;15.67;7.80;;;;;;;4.22;100.00;61249.44;5072993;28;20481;-76
2022/01/17 09:46:33;;;;;;;15.73;8.53;;;;;;;5.31;100.00;61366.44;5074328;28;20442;-75
2022/01/17 09:49:12;;;;;;;23.73;9.30;;;;;;;5.29;100.00;61364.84;5077045;28;20438;-77
2022/01/17 09:52:04;;;;;;;19.07;7.33;;;;;;;5.21;100.00;61361.34;5078067;28;20462;-77
2022/01/17 09:54:36;;;;;;;18.03;6.80;;;;;;;5.11;100.00;61350.72;5074157;28;20473;-75
2022/01/17 09:57:09;;;;;;;15.47;7.97;;;;;;;4.66;100.00;61295.75;5074281;28;20435;-74
2022/01/17 09:59:41;;;;;;;14.80;8.23;;;;;;;3.97;100.00;61225.34;5074024;28;20447;-77
2022/01/17 10:02:16;;;;;;;15.50;8.20;;;;;;;5.08;100.00;61348.03;5078173;28;20435;-76
2022/01/17 10:04:43;;;;;;;18.00;8.57;;;;;;;4.34;100.00;61274.28;5076866;28;20485;-74
2022/01/17 10:07:16;;;;;;;16.53;6.67;;;;;;;4.97;100.00;61335.78;5072336;28;20531;-75
2022/01/17 10:09:58;;;;;;;16.90;6.80;;;;;;;5.04;100.00;61338.19;5073783;28;20423;-76
2022/01/17 10:12:31;;;;;;;13.37;6.70;;;;;;;3.52;100.00;61182.00;5073670;28;20790;-75
2022/01/17 10:15:02;;;;;;;11.40;5.87;;;;;;;4.62;100.00;61293.47;5075350;28;20450;-73
2022/01/17 10:17:46;;;;;;;13.20;6.33;;;;;;;4.05;100.00;61231.34;5073679;28;20438;-76
2022/01/17 10:20:18;;;;;;;12.03;5.90;;;;;;;4.82;100.00;61314.75;5073551;28;20956;-75
2022/01/17 10:22:53;;;;;;;14.47;6.20;;;;;;;5.57;100.00;61394.66;5073645;28;20968;-76
2022/01/17 10:25:43;;;;;;;13.73;5.33;;;;;;;5.58;100.00;61398.25;5073819;28;20438;-77
2022/01/17 10:28:38;;;;;;;13.23;5.50;;;;;;;4.74;100.00;61308.75;5073102;28;20454;-75
2022/01/17 10:34:52;;;;;;;14.87;4.00;;;;;;;5.65;100.00;61403.19;5073554;28;20450;-74
2022/01/17 10:37:04;;;;;;;12.70;3.83;;;;;;;5.90;100.00;61429.84;5073692;28;20585;-74
2022/01/17 10:39:54;;;;;;;9.73;3.70;;;;;;;6.06;100.00;61448.38;5072261;28;20496;-76
2022/01/17 10:42:41;;;;;;;14.80;4.30;;;;;;;6.46;100.00;61488.50;5073349;28;20473;-73
2022/01/17 10:45:17;;;;;;;11.27;3.23;;;;;;;6.66;100.00;61509.84;5072678;28;20510;-77
2022/01/17 10:47:47;;;;;;;13.20;4.63;;;;;;;7.30;100.00;61583.22;5072842;28;20446;-74
2022/01/17 10:50:18;;;;;;;6.33;3.40;;;;;;;5.95;100.00;61442.25;5071563;28;20467;-77
2022/01/17 10:52:48;;;;;;;10.97;4.63;;;;;;;7.29;100.00;61577.06;5072430;28;20534;-75
2022/01/17 10:55:20;;;;;;;9.63;4.53;;;;;;;8.11;100.00;61668.66;5071666;28;20457;-77
2022/01/17 10:57:50;;;;;;;6.50;3.80;;;;;;;7.34;100.00;61582.44;5071968;28;20443;-75
2022/01/17 11:00:23;;;;;;;9.37;4.23;;;;;;;7.13;100.00;61560.00;5072348;28;20565;-75
2022/01/17 11:02:54;;;;;;;7.20;4.23;;;;;;;6.63;100.00;61506.63;5072141;28;20443;-74
2022/01/17 11:05:28;;;;;;;8.17;4.13;;;;;;;6.38;100.00;61485.03;5072498;28;21022;-75
2022/01/17 11:07:58;;;;;;;8.17;4.83;;;;;;;5.91;100.00;61435.97;5072353;28;20431;-76
2022/01/17 11:10:28;;;;;;;15.13;4.53;;;;;;;5.41;100.00;61380.13;5072411;28;20832;-76
2022/01/17 11:12:57;;;;;;;7.60;4.67;;;;;;;5.34;100.00;61369.59;5071740;28;20443;-75
2022/01/17 11:15:33;;;;;;;7.53;4.50;;;;;;;5.26;100.00;61361.63;5071893;28;20443;-76
2022/01/17 11:18:11;;;;;;;10.67;4.20;;;;;;;5.60;100.00;61397.84;5071876;28;20450;-74
2022/01/17 11:20:41;;;;;;;9.93;5.07;;;;;;;6.39;100.00;61483.56;5071812;28;20439;-74
2022/01/17 11:23:13;;;;;;;11.00;5.37;;;;;;;6.23;100.00;61463.97;5072327;28;20427;-76
2022/01/17 11:25:52;;;;;;;9.70;5.20;;;;;;;6.99;100.00;61545.06;5072339;28;20446;-74
2022/01/17 11:28:26;;;;;;;8.37;5.30;;;;;;;8.23;100.00;61678.97;5072346;28;21062;-75
2022/01/17 11:30:58;;;;;;;10.63;5.10;;;;;;;8.27;100.00;61686.31;5069752;28;20443;-75
2022/01/17 11:33:27;;;;;;;13.03;5.70;;;;;;;9.70;100.00;61835.13;5071216;28;20478;-77
2022/01/17 11:35:57;;;;;;;8.60;5.27;;;;;;;10.25;100.00;61890.94;5072063;28;20450;-77
2022/01/17 11:38:30;;;;;;;8.87;5.30;;;;;;;10.50;100.00;61923.34;5071733;28;20472;-76
2022/01/17 11:43:44;;;;;;;9.33;5.50;;;;;;;11.19;100.00;61991.13;5074879;28;20482;-75
2022/01/17 11:46:27;;;;;;;7.67;5.03;;;;;;;11.84;100.00;62060.81;5071501;28;20785;-75
2022/01/17 11:48:58;;;;;;;12.40;5.03;;;;;;;12.51;100.00;62135.28;5071378;28;20450;-76
2022/01/17 11:51:45;;;;;;;7.50;4.37;;;;;;;12.47;100.00;62130.97;5071437;28;20465;-76
2022/01/17 11:54:22;;;;;;;6.30;3.83;;;;;;;12.04;100.00;62082.28;5076642;28;20632;-75
2022/01/17 11:56:55;;;;;;;9.17;4.43;;;;;;;11.44;100.00;62017.91;5074623;28;20435;-74
2022/01/17 11:59:46;;;;;;;7.73;4.63;;;;;;;11.12;100.00;61984.16;5072076;28;20254;-75
2022/01/17 12:02:26;;;;;;;7.37;4.20;;;;;;;11.95;100.00;62072.09;5071639;28;20200;-74
2022/01/17 12:05:46;;;;;;;8.50;4.10;;;;;;;11.86;100.00;62063.50;5073338;28;20618;-77
2022/01/17 12:08:20;;;;;;;9.07;4.13;;;;;;;10.00;100.00;61867.75;5072369;28;20223;-76
2022/01/17 12:10:51;;;;;;;7.87;4.70;;;;;;;11.40;100.00;62013.63;5071967;28;20290;-77
2022/01/17 12:13:38;;;;;;;7.93;4.27;;;;;;;11.53;100.00;62028.09;5071218;28;20965;-77
2022/01/17 12:16:33;;;;;;;7.63;4.07;;;;;;;11.71;100.00;62052.00;5071029;28;20469;-77
2022/01/17 12:25:55;;;;;;;8.13;4.50;;;;;;;12.98;100.00;62187.22;5070847;28;20239;-77
2022/01/17 12:28:29;;;;;;;8.83;5.20;;;;;;;12.87;100.00;62172.84;5070581;28;20206;-76
2022/01/17 12:30:59;;;;;;;6.80;4.70;;;;;;;13.24;100.00;62210.03;5071689;28;20223;-76
2022/01/17 12:33:40;;;;;;;6.23;4.73;;;;;;;11.69;98.11;62044.75;5068951;28;20232;-77
2022/01/17 12:36:31;;;;;;;11.63;4.67;;;;;;;12.66;99.76;62153.91;5070928;28;20289;-78